»·PEaware :: N261MG KGEG-KOLM

N261MG :: KGEG-KOLM

FLIGHT INFORMATION

Flight Status: Arrived
Operator: Privately registered:
United States
More flights under this callsign
Pilot: Marty O. (15602)
Aircraft: ECLIPSE 500
(EA50)
More flights by this aircraft type
Origin: KGEG Spokane Intl
United States
Destination: KOLM Olympia
United States
More flights between these airports :: More routes between these airports
Route: +GEG6 EPH BLUIT J12 NORMY
File this flight plan on PilotEdge
Remarks:
Altitude:
(Current/Filed)
36,000ft
Speed:
(Current/Filed)
360kts
Departed: 26-Sep-20 07:57 PM
Arrived: 26-Sep-20 09:03 PM
Distance/Time
Traveled:
222nm/1:05
Distance/Time
To Go:
Arrived

Flight Plot

Page will automatically refresh every two minutes.

Flight plan parsing failed; only flown route is shown


Map Options




Map Legend


Flown Route
Filed Route
Departure Airport
Arrival Airport
Navaid (VOR, NDB)
Fix

Horizontal Profiles

Position Reports

Time Latitude Longitude Heading Altitude Ground
Speed
26-Sep-20 19:27 47.620570 -117.526794 269 2387ft 0kts
26-Sep-20 19:28 47.620570 -117.526794 269 2387ft 0kts
26-Sep-20 19:29 47.620570 -117.526794 269 2387ft 0kts
26-Sep-20 19:30 47.620570 -117.526794 269 2387ft 0kts
26-Sep-20 19:31 47.620570 -117.526794 269 2387ft 0kts
26-Sep-20 19:32 47.620570 -117.526794 269 2387ft 0kts
26-Sep-20 19:33 47.620570 -117.526794 269 2387ft 0kts
26-Sep-20 19:34 47.620570 -117.526794 269 2387ft 0kts
26-Sep-20 19:35 47.620570 -117.526794 269 2387ft 0kts
26-Sep-20 19:36 47.620570 -117.526794 269 2387ft 0kts
26-Sep-20 19:37 47.620570 -117.526794 269 2387ft 0kts
26-Sep-20 19:38 47.620570 -117.526794 269 2387ft 0kts
26-Sep-20 19:39 47.620570 -117.526794 270 2387ft 0kts
26-Sep-20 19:40 47.620570 -117.526794 270 2387ft 0kts
26-Sep-20 19:41 47.620570 -117.526794 270 2387ft 0kts
26-Sep-20 19:42 47.620570 -117.526794 270 2387ft 0kts
26-Sep-20 19:43 47.620570 -117.526794 270 2387ft 0kts
26-Sep-20 19:44 47.620570 -117.526794 270 2387ft 0kts
26-Sep-20 19:45 47.620570 -117.526794 270 2387ft 0kts
26-Sep-20 19:46 47.620644 -117.527975 290 2387ft 8kts
26-Sep-20 19:47 47.622230 -117.528357 48 2387ft 13kts
26-Sep-20 19:48 47.625913 -117.522811 44 2387ft 20kts
26-Sep-20 19:49 47.629075 -117.518058 45 2387ft 6kts
26-Sep-20 19:50 47.630459 -117.517377 314 2387ft 0kts
26-Sep-20 19:52 47.630459 -117.517377 314 2387ft 0kts
26-Sep-20 19:53 47.630459 -117.517377 314 2387ft 0kts
26-Sep-20 19:54 47.630459 -117.517377 314 2387ft 0kts
26-Sep-20 19:55 47.630459 -117.517377 314 2387ft 0kts
26-Sep-20 19:56 47.631093 -117.518428 280 2387ft 7kts
26-Sep-20 19:57 47.621124 -117.533405 223 2546ft 122kts
26-Sep-20 19:58 47.588515 -117.577992 223 4861ft 168kts
26-Sep-20 19:59 47.550904 -117.626083 224 7849ft 177kts
26-Sep-20 20:00 47.509768 -117.674999 224 10529ft 189kts
26-Sep-20 20:01 47.462128 -117.729753 224 11987ft 251kts
26-Sep-20 20:02 47.399790 -117.805066 224 12817ft 278kts
26-Sep-20 20:03 47.387111 -117.887629 286 15875ft 214kts
26-Sep-20 20:04 47.388937 -117.978516 276 17972ft 219kts
26-Sep-20 20:05 47.388388 -118.065772 280 20721ft 182kts
26-Sep-20 20:06 47.388069 -118.136429 284 23158ft 147kts
26-Sep-20 20:07 47.387924 -118.193149 287 24946ft 130kts
26-Sep-20 20:08 47.387811 -118.247622 289 26354ft 129kts
26-Sep-20 20:09 47.387649 -118.301738 290 27622ft 129kts
26-Sep-20 20:09 47.387500 -118.346644 291 28662ft 127kts
26-Sep-20 20:10 47.387239 -118.398733 293 29917ft 119kts
26-Sep-20 20:11 47.386998 -118.448171 294 30999ft 118kts
26-Sep-20 20:13 47.386704 -118.504757 295 32163ft 116kts
26-Sep-20 20:13 47.386504 -118.544925 296 32941ft 115kts
26-Sep-20 20:14 47.386215 -118.592664 296 33736ft 118kts
26-Sep-20 20:15 47.385933 -118.641628 296 34514ft 118kts
26-Sep-20 20:16 47.385639 -118.690529 295 35277ft 121kts
26-Sep-20 20:17 47.385243 -118.741168 296 35970ft 126kts
26-Sep-20 20:18 47.384860 -118.794645 295 36194ft 134kts
26-Sep-20 20:19 47.384506 -118.858586 292 36191ft 173kts
26-Sep-20 20:20 47.383769 -118.936321 290 36191ft 203kts
26-Sep-20 20:21 47.382871 -119.026415 287 36038ft 234kts
26-Sep-20 20:22 47.381740 -119.134986 286 34477ft 293kts
26-Sep-20 20:23 47.380213 -119.261247 283 32883ft 318kts
26-Sep-20 20:24 47.378421 -119.394007 282 31270ft 328kts
26-Sep-20 20:25 47.381361 -119.528000 283 29636ft 326kts
26-Sep-20 20:26 47.385547 -119.663687 282 28158ft 327kts
26-Sep-20 20:27 47.389503 -119.796995 281 27021ft 323kts
26-Sep-20 20:28 47.393262 -119.928893 281 25756ft 321kts
26-Sep-20 20:29 47.396959 -120.061960 280 24495ft 315kts
26-Sep-20 20:30 47.400355 -120.193028 280 24195ft 316kts
26-Sep-20 20:31 47.403767 -120.328683 280 24207ft 316kts
26-Sep-20 20:32 47.407035 -120.463574 280 24196ft 312kts
26-Sep-20 20:33 47.410055 -120.596033 280 24194ft 315kts
26-Sep-20 20:34 47.412920 -120.728546 279 24213ft 313kts
26-Sep-20 20:35 47.415679 -120.864024 279 24212ft 315kts
26-Sep-20 20:36 47.418291 -120.997909 279 24211ft 316kts
26-Sep-20 20:37 47.420741 -121.129107 277 24212ft 320kts
26-Sep-20 20:38 47.422979 -121.261936 276 24257ft 325kts
26-Sep-20 20:39 47.424789 -121.382303 277 22906ft 247kts
26-Sep-20 20:40 47.426281 -121.476520 276 21053ft 228kts
26-Sep-20 20:41 47.427865 -121.583315 274 19233ft 275kts
26-Sep-20 20:42 47.429321 -121.696489 273 17418ft 276kts
26-Sep-20 20:43 47.398804 -121.802197 245 15606ft 284kts
26-Sep-20 20:44 47.360386 -121.902375 244 14666ft 288kts
26-Sep-20 20:45 47.322245 -122.001595 244 13273ft 278kts
26-Sep-20 20:46 47.285766 -122.096167 243 11931ft 276kts
26-Sep-20 20:47 47.250297 -122.187762 243 10624ft 273kts
26-Sep-20 20:48 47.211662 -122.287202 242 9167ft 267kts
26-Sep-20 20:49 47.174782 -122.381921 241 7741ft 260kts
26-Sep-20 20:50 47.170191 -122.480199 285 6322ft 251kts
26-Sep-20 20:51 47.190933 -122.573889 285 4683ft 227kts
26-Sep-20 20:52 47.210304 -122.662775 285 3007ft 219kts
26-Sep-20 20:53 47.229838 -122.753130 285 2964ft 219kts
26-Sep-20 20:54 47.219472 -122.816847 215 2900ft 160kts
26-Sep-20 20:55 47.177266 -122.842744 192 2368ft 144kts
26-Sep-20 20:56 47.135765 -122.855553 191 2370ft 155kts
26-Sep-20 20:57 47.093488 -122.868088 191 2371ft 155kts
26-Sep-20 20:58 47.055642 -122.879208 191 1790ft 115kts
26-Sep-20 20:59 47.024582 -122.888296 189 1129ft 114kts
26-Sep-20 21:00 46.995381 -122.896614 188 646ft 90kts
26-Sep-20 21:01 46.972661 -122.903343 192 211ft 61kts
26-Sep-20 21:02 46.967244 -122.904278 95 211ft 4kts
26-Sep-20 21:03 46.967233 -122.903070 91 211ft 15kts
26-Sep-20 21:04 46.970280 -122.899880 50 211ft 17kts
26-Sep-20 21:05 46.973634 -122.897361 320 211ft 20kts
26-Sep-20 21:06 46.975959 -122.898453 34 211ft 0kts

Navigation Log

Ident Type
Flight plan parsing failed, navigation log unavailable